sensor_id;sensor_type;location;lat;lon;timestamp;temperature;humidity
45137;DHT22;30894;51.740;19.498;2023-08-06T00:01:15;17.60;99.90
45137;DHT22;30894;51.740;19.498;2023-08-06T00:03:49;17.50;99.90
45137;DHT22;30894;51.740;19.498;2023-08-06T00:06:15;17.50;99.90
45137;DHT22;30894;51.740;19.498;2023-08-06T00:08:41;17.60;99.90
45137;DHT22;30894;51.740;19.498;2023-08-06T00:11:08;17.60;99.90
45137;DHT22;30894;51.740;19.498;2023-08-06T00:13:34;17.50;99.90
45137;DHT22;30894;51.740;19.498;2023-08-06T00:16:11;17.40;99.90
45137;DHT22;30894;51.740;19.498;2023-08-06T00:18:38;17.50;99.90
45137;DHT22;30894;51.740;19.498;2023-08-06T00:21:05;17.40;99.90
45137;DHT22;30894;51.740;19.498;2023-08-06T00:23:31;17.40;99.90
45137;DHT22;30894;51.740;19.498;2023-08-06T00:25:57;17.40;99.90
45137;DHT22;30894;51.740;19.498;2023-08-06T00:28:23;17.50;99.90
45137;DHT22;30894;51.740;19.498;2023-08-06T00:30:56;17.50;99.90
45137;DHT22;30894;51.740;19.498;2023-08-06T00:33:22;17.50;99.90
45137;DHT22;30894;51.740;19.498;2023-08-06T00:35:49;17.50;99.90
45137;DHT22;30894;51.740;19.498;2023-08-06T00:38:15;17.40;99.90
45137;DHT22;30894;51.740;19.498;2023-08-06T00:40:42;17.50;99.90
45137;DHT22;30894;51.740;19.498;2023-08-06T00:43:08;17.50;99.90
45137;DHT22;30894;51.740;19.498;2023-08-06T00:45:35;17.60;99.90
45137;DHT22;30894;51.740;19.498;2023-08-06T00:48:04;17.60;99.90
45137;DHT22;30894;51.740;19.498;2023-08-06T00:50:32;17.60;99.90
45137;DHT22;30894;51.740;19.498;2023-08-06T00:52:58;17.60;99.90
45137;DHT22;30894;51.740;19.498;2023-08-06T00:55:25;17.60;99.90
45137;DHT22;30894;51.740;19.498;2023-08-06T00:57:51;17.60;99.90
45137;DHT22;30894;51.740;19.498;2023-08-06T01:00:22;17.60;99.90
45137;DHT22;30894;51.740;19.498;2023-08-06T01:02:49;17.60;99.90
45137;DHT22;30894;51.740;19.498;2023-08-06T01:05:20;17.60;99.90
45137;DHT22;30894;51.740;19.498;2023-08-06T01:14:13;17.60;99.90
45137;DHT22;30894;51.740;19.498;2023-08-06T01:16:45;17.60;99.90
45137;DHT22;30894;51.740;19.498;2023-08-06T01:19:17;17.70;99.90
45137;DHT22;30894;51.740;19.498;2023-08-06T01:21:45;17.80;99.90
45137;DHT22;30894;51.740;19.498;2023-08-06T01:24:11;17.70;99.90
45137;DHT22;30894;51.740;19.498;2023-08-06T01:26:58;17.70;99.90
45137;DHT22;30894;51.740;19.498;2023-08-06T01:29:49;17.70;99.90
45137;DHT22;30894;51.740;19.498;2023-08-06T01:32:25;17.70;99.90
45137;DHT22;30894;51.740;19.498;2023-08-06T01:34:52;17.70;99.90
45137;DHT22;30894;51.740;19.498;2023-08-06T01:37:20;17.70;99.90
45137;DHT22;30894;51.740;19.498;2023-08-06T01:39:46;17.60;99.90
45137;DHT22;30894;51.740;19.498;2023-08-06T01:42:12;17.60;99.90
45137;DHT22;30894;51.740;19.498;2023-08-06T01:44:38;17.70;99.90
45137;DHT22;30894;51.740;19.498;2023-08-06T01:47:05;17.70;99.90
45137;DHT22;30894;51.740;19.498;2023-08-06T01:49:31;17.60;99.90
45137;DHT22;30894;51.740;19.498;2023-08-06T01:51:57;17.60;99.90
45137;DHT22;30894;51.740;19.498;2023-08-06T01:54:23;17.60;99.90
45137;DHT22;30894;51.740;19.498;2023-08-06T01:56:49;17.60;99.90
45137;DHT22;30894;51.740;19.498;2023-08-06T01:59:15;17.60;99.90
45137;DHT22;30894;51.740;19.498;2023-08-06T02:01:42;17.50;99.90
45137;DHT22;30894;51.740;19.498;2023-08-06T02:04:10;17.50;99.90
45137;DHT22;30894;51.740;19.498;2023-08-06T02:06:36;17.60;99.90
45137;DHT22;30894;51.740;19.498;2023-08-06T02:09:02;17.50;99.90
45137;DHT22;30894;51.740;19.498;2023-08-06T02:11:31;17.40;99.90
45137;DHT22;30894;51.740;19.498;2023-08-06T02:13:57;17.50;99.90
45137;DHT22;30894;51.740;19.498;2023-08-06T02:16:24;17.50;99.90
45137;DHT22;30894;51.740;19.498;2023-08-06T02:18:53;17.40;99.90
45137;DHT22;30894;51.740;19.498;2023-08-06T02:21:19;17.50;99.90
45137;DHT22;30894;51.740;19.498;2023-08-06T02:23:45;17.50;99.90
45137;DHT22;30894;51.740;19.498;2023-08-06T02:26:12;17.50;99.90
45137;DHT22;30894;51.740;19.498;2023-08-06T02:28:37;17.50;99.90
45137;DHT22;30894;51.740;19.498;2023-08-06T02:31:04;17.40;99.90
45137;DHT22;30894;51.740;19.498;2023-08-06T02:33:32;17.40;99.90
45137;DHT22;30894;51.740;19.498;2023-08-06T02:36:00;17.40;99.90
45137;DHT22;30894;51.740;19.498;2023-08-06T02:38:27;17.50;99.90
45137;DHT22;30894;51.740;19.498;2023-08-06T02:40:53;17.40;99.90
45137;DHT22;30894;51.740;19.498;2023-08-06T02:43:19;17.50;99.90
45137;DHT22;30894;51.740;19.498;2023-08-06T02:45:46;17.50;99.90
45137;DHT22;30894;51.740;19.498;2023-08-06T02:48:12;17.50;99.90
45137;DHT22;30894;51.740;19.498;2023-08-06T02:50:41;17.60;99.90
45137;DHT22;30894;51.740;19.498;2023-08-06T02:53:08;17.60;99.90
45137;DHT22;30894;51.740;19.498;2023-08-06T02:55:35;17.60;99.90
45137;DHT22;30894;51.740;19.498;2023-08-06T02:58:01;17.60;99.90
45137;DHT22;30894;51.740;19.498;2023-08-06T03:00:30;17.60;99.90
45137;DHT22;30894;51.740;19.498;2023-08-06T03:02:56;17.60;99.90
45137;DHT22;30894;51.740;19.498;2023-08-06T03:05:23;17.50;99.90
45137;DHT22;30894;51.740;19.498;2023-08-06T03:07:49;17.60;99.90
45137;DHT22;30894;51.740;19.498;2023-08-06T03:10:15;17.60;99.90
45137;DHT22;30894;51.740;19.498;2023-08-06T03:12:41;17.60;99.90
45137;DHT22;30894;51.740;19.498;2023-08-06T03:15:08;17.60;99.90
45137;DHT22;30894;51.740;19.498;2023-08-06T03:17:34;17.60;99.90
45137;DHT22;30894;51.740;19.498;2023-08-06T03:20:00;17.70;99.90
45137;DHT22;30894;51.740;19.498;2023-08-06T03:22:26;17.70;99.90
45137;DHT22;30894;51.740;19.498;2023-08-06T03:24:52;17.70;99.90
45137;DHT22;30894;51.740;19.498;2023-08-06T03:27:18;17.70;99.90
45137;DHT22;30894;51.740;19.498;2023-08-06T03:29:45;17.80;99.90
45137;DHT22;30894;51.740;19.498;2023-08-06T03:32:11;17.80;99.90
45137;DHT22;30894;51.740;19.498;2023-08-06T03:34:37;17.80;99.90
45137;DHT22;30894;51.740;19.498;2023-08-06T03:37:03;17.70;99.90
45137;DHT22;30894;51.740;19.498;2023-08-06T03:39:30;17.80;99.90
45137;DHT22;30894;51.740;19.498;2023-08-06T03:41:55;17.80;99.90
45137;DHT22;30894;51.740;19.498;2023-08-06T03:44:22;17.90;99.90
45137;DHT22;30894;51.740;19.498;2023-08-06T03:46:48;17.90;99.90
45137;DHT22;30894;51.740;19.498;2023-08-06T03:49:14;18.00;99.90
45137;DHT22;30894;51.740;19.498;2023-08-06T03:51:40;18.00;99.90
45137;DHT22;30894;51.740;19.498;2023-08-06T03:54:07;18.00;99.90
45137;DHT22;30894;51.740;19.498;2023-08-06T03:56:33;18.20;99.90
45137;DHT22;30894;51.740;19.498;2023-08-06T03:58:59;18.10;99.90
45137;DHT22;30894;51.740;19.498;2023-08-06T04:01:25;18.10;99.90
45137;DHT22;30894;51.740;19.498;2023-08-06T04:03:51;18.10;99.90
45137;DHT22;30894;51.740;19.498;2023-08-06T04:06:17;18.20;99.90
45137;DHT22;30894;51.740;19.498;2023-08-06T04:08:43;18.20;99.90
45137;DHT22;30894;51.740;19.498;2023-08-06T04:11:12;18.20;99.90
45137;DHT22;30894;51.740;19.498;2023-08-06T04:13:42;18.20;99.90
45137;DHT22;30894;51.740;19.498;2023-08-06T04:16:09;18.30;99.90
45137;DHT22;30894;51.740;19.498;2023-08-06T04:18:35;18.20;99.90
45137;DHT22;30894;51.740;19.498;2023-08-06T04:21:02;18.30;99.90
45137;DHT22;30894;51.740;19.498;2023-08-06T04:23:28;18.30;99.90
45137;DHT22;30894;51.740;19.498;2023-08-06T04:25:58;18.40;99.90
45137;DHT22;30894;51.740;19.498;2023-08-06T04:28:24;18.40;99.90
45137;DHT22;30894;51.740;19.498;2023-08-06T04:30:50;18.40;99.90
45137;DHT22;30894;51.740;19.498;2023-08-06T04:33:16;18.60;99.90
45137;DHT22;30894;51.740;19.498;2023-08-06T04:35:42;18.50;99.90
45137;DHT22;30894;51.740;19.498;2023-08-06T04:38:08;18.50;99.90
45137;DHT22;30894;51.740;19.498;2023-08-06T04:40:35;18.50;99.90
45137;DHT22;30894;51.740;19.498;2023-08-06T04:43:02;18.50;99.90
45137;DHT22;30894;51.740;19.498;2023-08-06T04:45:28;18.50;99.90
45137;DHT22;30894;51.740;19.498;2023-08-06T04:47:54;18.40;99.90
45137;DHT22;30894;51.740;19.498;2023-08-06T04:50:20;18.40;99.90
45137;DHT22;30894;51.740;19.498;2023-08-06T04:52:46;18.40;99.90
45137;DHT22;30894;51.740;19.498;2023-08-06T04:55:12;18.40;99.90
45137;DHT22;30894;51.740;19.498;2023-08-06T04:57:38;18.40;99.90
45137;DHT22;30894;51.740;19.498;2023-08-06T05:00:05;18.40;99.90
45137;DHT22;30894;51.740;19.498;2023-08-06T05:02:32;18.40;99.90
45137;DHT22;30894;51.740;19.498;2023-08-06T05:05:00;18.40;99.90
45137;DHT22;30894;51.740;19.498;2023-08-06T05:07:26;18.40;99.90
45137;DHT22;30894;51.740;19.498;2023-08-06T05:09:52;18.40;99.90
45137;DHT22;30894;51.740;19.498;2023-08-06T05:12:19;18.40;99.90
45137;DHT22;30894;51.740;19.498;2023-08-06T05:14:47;18.40;99.90
45137;DHT22;30894;51.740;19.498;2023-08-06T05:17:13;18.40;99.90
45137;DHT22;30894;51.740;19.498;2023-08-06T05:19:39;18.40;99.90
45137;DHT22;30894;51.740;19.498;2023-08-06T05:22:05;18.50;99.90
45137;DHT22;30894;51.740;19.498;2023-08-06T05:24:31;18.50;99.90
45137;DHT22;30894;51.740;19.498;2023-08-06T05:26:58;18.50;99.90
45137;DHT22;30894;51.740;19.498;2023-08-06T05:29:23;18.50;99.90
45137;DHT22;30894;51.740;19.498;2023-08-06T05:31:50;18.50;99.90
45137;DHT22;30894;51.740;19.498;2023-08-06T05:34:16;18.50;99.90
45137;DHT22;30894;51.740;19.498;2023-08-06T05:36:42;18.50;99.90
45137;DHT22;30894;51.740;19.498;2023-08-06T05:39:08;18.60;99.90
45137;DHT22;30894;51.740;19.498;2023-08-06T05:41:34;18.80;99.90
45137;DHT22;30894;51.740;19.498;2023-08-06T05:44:00;18.70;99.90
45137;DHT22;30894;51.740;19.498;2023-08-06T05:46:27;18.80;99.90
45137;DHT22;30894;51.740;19.498;2023-08-06T05:48:53;18.80;99.90
45137;DHT22;30894;51.740;19.498;2023-08-06T05:51:19;18.80;99.90
45137;DHT22;30894;51.740;19.498;2023-08-06T05:53:46;18.80;99.90
45137;DHT22;30894;51.740;19.498;2023-08-06T05:56:12;18.90;99.90
45137;DHT22;30894;51.740;19.498;2023-08-06T05:58:38;19.00;99.90
45137;DHT22;30894;51.740;19.498;2023-08-06T06:01:04;19.00;99.90
45137;DHT22;30894;51.740;19.498;2023-08-06T06:03:30;19.00;99.90
45137;DHT22;30894;51.740;19.498;2023-08-06T06:05:57;19.00;99.90
45137;DHT22;30894;51.740;19.498;2023-08-06T06:08:23;19.00;99.90
45137;DHT22;30894;51.740;19.498;2023-08-06T06:10:49;19.10;99.90
45137;DHT22;30894;51.740;19.498;2023-08-06T06:13:15;19.00;99.90
45137;DHT22;30894;51.740;19.498;2023-08-06T06:15:41;19.10;99.90
45137;DHT22;30894;51.740;19.498;2023-08-06T06:18:07;19.10;99.90
45137;DHT22;30894;51.740;19.498;2023-08-06T06:20:33;19.10;99.90
45137;DHT22;30894;51.740;19.498;2023-08-06T06:22:59;19.10;99.90
45137;DHT22;30894;51.740;19.498;2023-08-06T06:25:26;19.20;99.90
45137;DHT22;30894;51.740;19.498;2023-08-06T06:27:52;19.20;99.90
45137;DHT22;30894;51.740;19.498;2023-08-06T06:30:18;19.30;99.90
45137;DHT22;30894;51.740;19.498;2023-08-06T06:32:44;19.30;99.90
45137;DHT22;30894;51.740;19.498;2023-08-06T06:35:10;19.40;99.90
45137;DHT22;30894;51.740;19.498;2023-08-06T06:37:36;19.40;99.90
45137;DHT22;30894;51.740;19.498;2023-08-06T06:40:02;19.40;99.90
45137;DHT22;30894;51.740;19.498;2023-08-06T06:42:29;19.50;99.90
45137;DHT22;30894;51.740;19.498;2023-08-06T06:44:55;19.50;99.90
45137;DHT22;30894;51.740;19.498;2023-08-06T06:47:22;19.60;99.90
45137;DHT22;30894;51.740;19.498;2023-08-06T06:49:48;19.50;99.90
45137;DHT22;30894;51.740;19.498;2023-08-06T06:52:14;19.50;99.90
45137;DHT22;30894;51.740;19.498;2023-08-06T06:54:40;19.50;99.90
45137;DHT22;30894;51.740;19.498;2023-08-06T06:57:06;19.60;99.90
45137;DHT22;30894;51.740;19.498;2023-08-06T06:59:32;19.60;99.90
45137;DHT22;30894;51.740;19.498;2023-08-06T07:01:58;19.60;99.90
45137;DHT22;30894;51.740;19.498;2023-08-06T07:04:25;19.60;99.90
45137;DHT22;30894;51.740;19.498;2023-08-06T07:06:51;19.60;99.90
45137;DHT22;30894;51.740;19.498;2023-08-06T07:09:18;19.60;99.90
45137;DHT22;30894;51.740;19.498;2023-08-06T07:11:44;19.60;99.90
45137;DHT22;30894;51.740;19.498;2023-08-06T07:14:10;19.60;99.90
45137;DHT22;30894;51.740;19.498;2023-08-06T07:16:36;19.50;99.90
45137;DHT22;30894;51.740;19.498;2023-08-06T07:19:02;19.50;99.90
45137;DHT22;30894;51.740;19.498;2023-08-06T07:21:28;19.50;99.90
45137;DHT22;30894;51.740;19.498;2023-08-06T07:23:55;19.50;99.90
45137;DHT22;30894;51.740;19.498;2023-08-06T07:26:21;19.50;99.90
45137;DHT22;30894;51.740;19.498;2023-08-06T07:28:47;19.50;99.90
45137;DHT22;30894;51.740;19.498;2023-08-06T07:31:13;19.70;99.90
45137;DHT22;30894;51.740;19.498;2023-08-06T07:33:39;19.80;99.90
45137;DHT22;30894;51.740;19.498;2023-08-06T07:36:13;19.90;99.90
45137;DHT22;30894;51.740;19.498;2023-08-06T07:38:40;19.90;99.90
45137;DHT22;30894;51.740;19.498;2023-08-06T07:41:06;19.80;99.90
45137;DHT22;30894;51.740;19.498;2023-08-06T07:43:33;19.90;99.90
45137;DHT22;30894;51.740;19.498;2023-08-06T07:46:00;19.90;99.90
45137;DHT22;30894;51.740;19.498;2023-08-06T07:48:27;20.00;99.90
45137;DHT22;30894;51.740;19.498;2023-08-06T07:50:54;20.10;99.90
45137;DHT22;30894;51.740;19.498;2023-08-06T07:53:21;20.10;99.90
45137;DHT22;30894;51.740;19.498;2023-08-06T07:55:50;20.10;99.90
45137;DHT22;30894;51.740;19.498;2023-08-06T07:58:19;20.10;99.90
45137;DHT22;30894;51.740;19.498;2023-08-06T08:00:46;20.10;99.90
45137;DHT22;30894;51.740;19.498;2023-08-06T08:03:13;20.10;99.90
45137;DHT22;30894;51.740;19.498;2023-08-06T08:05:40;20.00;99.90
45137;DHT22;30894;51.740;19.498;2023-08-06T08:08:08;20.00;99.90
45137;DHT22;30894;51.740;19.498;2023-08-06T08:10:34;20.00;99.90
45137;DHT22;30894;51.740;19.498;2023-08-06T08:13:02;20.00;99.90
45137;DHT22;30894;51.740;19.498;2023-08-06T08:15:28;20.00;99.90
45137;DHT22;30894;51.740;19.498;2023-08-06T08:17:55;20.00;99.90
45137;DHT22;30894;51.740;19.498;2023-08-06T08:20:24;20.00;99.90
45137;DHT22;30894;51.740;19.498;2023-08-06T08:22:53;19.90;99.90
45137;DHT22;30894;51.740;19.498;2023-08-06T08:25:19;19.90;99.90
45137;DHT22;30894;51.740;19.498;2023-08-06T08:27:46;19.90;99.90
45137;DHT22;30894;51.740;19.498;2023-08-06T08:30:12;19.80;99.90
45137;DHT22;30894;51.740;19.498;2023-08-06T08:32:38;19.80;99.90
45137;DHT22;30894;51.740;19.498;2023-08-06T08:35:04;19.80;99.90
45137;DHT22;30894;51.740;19.498;2023-08-06T08:37:30;19.80;99.90
45137;DHT22;30894;51.740;19.498;2023-08-06T08:39:56;19.80;99.90
45137;DHT22;30894;51.740;19.498;2023-08-06T08:42:23;19.70;99.90
45137;DHT22;30894;51.740;19.498;2023-08-06T08:44:50;19.80;99.90
45137;DHT22;30894;51.740;19.498;2023-08-06T08:47:16;19.80;99.90
45137;DHT22;30894;51.740;19.498;2023-08-06T08:49:43;19.80;99.90
45137;DHT22;30894;51.740;19.498;2023-08-06T08:52:10;19.90;99.90
45137;DHT22;30894;51.740;19.498;2023-08-06T08:54:38;20.10;99.90
45137;DHT22;30894;51.740;19.498;2023-08-06T08:57:05;20.30;99.90
45137;DHT22;30894;51.740;19.498;2023-08-06T08:59:33;20.60;99.90
45137;DHT22;30894;51.740;19.498;2023-08-06T09:02:01;20.80;99.90
45137;DHT22;30894;51.740;19.498;2023-08-06T09:04:30;21.00;99.90
45137;DHT22;30894;51.740;19.498;2023-08-06T09:07:02;21.20;99.90
45137;DHT22;30894;51.740;19.498;2023-08-06T09:09:34;21.40;99.90
45137;DHT22;30894;51.740;19.498;2023-08-06T09:12:12;21.40;99.90
45137;DHT22;30894;51.740;19.498;2023-08-06T09:14:41;21.40;99.90
45137;DHT22;30894;51.740;19.498;2023-08-06T09:17:08;21.50;99.90
45137;DHT22;30894;51.740;19.498;2023-08-06T09:19:36;21.40;99.90
45137;DHT22;30894;51.740;19.498;2023-08-06T09:22:03;21.30;99.90
45137;DHT22;30894;51.740;19.498;2023-08-06T09:24:29;21.20;99.90
45137;DHT22;30894;51.740;19.498;2023-08-06T09:26:55;21.00;99.90
45137;DHT22;30894;51.740;19.498;2023-08-06T09:29:21;20.90;99.90
45137;DHT22;30894;51.740;19.498;2023-08-06T09:31:49;20.90;99.90
45137;DHT22;30894;51.740;19.498;2023-08-06T09:34:20;20.80;99.90
45137;DHT22;30894;51.740;19.498;2023-08-06T09:36:50;20.80;99.90
45137;DHT22;30894;51.740;19.498;2023-08-06T09:39:28;20.70;99.90
45137;DHT22;30894;51.740;19.498;2023-08-06T09:42:01;20.60;99.90
45137;DHT22;30894;51.740;19.498;2023-08-06T09:44:29;20.60;99.90
45137;DHT22;30894;51.740;19.498;2023-08-06T09:46:58;20.60;99.90
45137;DHT22;30894;51.740;19.498;2023-08-06T09:49:28;20.60;99.90
45137;DHT22;30894;51.740;19.498;2023-08-06T09:51:55;20.60;99.90
45137;DHT22;30894;51.740;19.498;2023-08-06T09:54:24;20.60;99.90
45137;DHT22;30894;51.740;19.498;2023-08-06T09:56:52;20.60;99.90
45137;DHT22;30894;51.740;19.498;2023-08-06T09:59:19;20.60;99.90
45137;DHT22;30894;51.740;19.498;2023-08-06T10:01:46;20.50;99.90
45137;DHT22;30894;51.740;19.498;2023-08-06T10:04:14;20.40;99.90
45137;DHT22;30894;51.740;19.498;2023-08-06T10:06:42;20.30;99.90
45137;DHT22;30894;51.740;19.498;2023-08-06T10:09:08;20.30;99.90
45137;DHT22;30894;51.740;19.498;2023-08-06T10:11:39;20.30;99.90
45137;DHT22;30894;51.740;19.498;2023-08-06T10:14:11;20.40;99.90
45137;DHT22;30894;51.740;19.498;2023-08-06T10:16:42;20.50;99.90
45137;DHT22;30894;51.740;19.498;2023-08-06T10:19:12;20.60;99.90
45137;DHT22;30894;51.740;19.498;2023-08-06T10:21:42;20.60;99.90
45137;DHT22;30894;51.740;19.498;2023-08-06T10:24:54;20.70;99.90
45137;DHT22;30894;51.740;19.498;2023-08-06T10:27:33;20.70;99.90
45137;DHT22;30894;51.740;19.498;2023-08-06T10:30:26;20.70;99.90
45137;DHT22;30894;51.740;19.498;2023-08-06T10:35:46;20.80;99.90
45137;DHT22;30894;51.740;19.498;2023-08-06T10:38:21;20.70;99.90
45137;DHT22;30894;51.740;19.498;2023-08-06T10:40:49;20.70;99.90
45137;DHT22;30894;51.740;19.498;2023-08-06T10:43:26;20.60;99.90
45137;DHT22;30894;51.740;19.498;2023-08-06T10:45:54;20.50;99.90
45137;DHT22;30894;51.740;19.498;2023-08-06T10:48:40;20.60;99.90
45137;DHT22;30894;51.740;19.498;2023-08-06T10:51:12;20.60;99.90
45137;DHT22;30894;51.740;19.498;2023-08-06T10:53:44;20.60;99.90
45137;DHT22;30894;51.740;19.498;2023-08-06T10:56:18;20.70;99.90
45137;DHT22;30894;51.740;19.498;2023-08-06T10:58:46;20.90;99.90
45137;DHT22;30894;51.740;19.498;2023-08-06T11:01:12;21.00;99.90
45137;DHT22;30894;51.740;19.498;2023-08-06T11:03:39;21.00;99.90
45137;DHT22;30894;51.740;19.498;2023-08-06T11:06:08;21.10;99.90
45137;DHT22;30894;51.740;19.498;2023-08-06T11:08:42;21.40;99.90
45137;DHT22;30894;51.740;19.498;2023-08-06T11:11:15;21.80;99.90
45137;DHT22;30894;51.740;19.498;2023-08-06T11:13:46;22.10;99.90
45137;DHT22;30894;51.740;19.498;2023-08-06T11:16:14;22.20;99.90
45137;DHT22;30894;51.740;19.498;2023-08-06T11:18:42;22.20;99.90
45137;DHT22;30894;51.740;19.498;2023-08-06T11:21:09;22.10;99.90
45137;DHT22;30894;51.740;19.498;2023-08-06T11:23:35;22.00;99.90
45137;DHT22;30894;51.740;19.498;2023-08-06T11:26:02;21.80;99.90
45137;DHT22;30894;51.740;19.498;2023-08-06T11:28:28;21.30;99.90
45137;DHT22;30894;51.740;19.498;2023-08-06T11:30:55;20.80;99.90
45137;DHT22;30894;51.740;19.498;2023-08-06T11:33:26;20.30;99.90
45137;DHT22;30894;51.740;19.498;2023-08-06T11:35:55;19.80;99.90
45137;DHT22;30894;51.740;19.498;2023-08-06T11:38:26;19.40;99.90
45137;DHT22;30894;51.740;19.498;2023-08-06T11:41:03;19.00;99.90
45137;DHT22;30894;51.740;19.498;2023-08-06T11:43:30;18.50;99.90
45137;DHT22;30894;51.740;19.498;2023-08-06T11:45:57;18.30;99.90
45137;DHT22;30894;51.740;19.498;2023-08-06T11:48:23;18.10;99.90
45137;DHT22;30894;51.740;19.498;2023-08-06T11:50:49;18.00;99.90
45137;DHT22;30894;51.740;19.498;2023-08-06T11:53:15;18.00;99.90
45137;DHT22;30894;51.740;19.498;2023-08-06T11:55:42;17.90;99.90
45137;DHT22;30894;51.740;19.498;2023-08-06T11:58:10;18.00;99.90
45137;DHT22;30894;51.740;19.498;2023-08-06T12:00:40;18.50;99.90
45137;DHT22;30894;51.740;19.498;2023-08-06T12:03:10;19.50;99.90
45137;DHT22;30894;51.740;19.498;2023-08-06T12:05:36;20.40;99.90
45137;DHT22;30894;51.740;19.498;2023-08-06T12:08:04;20.80;99.90
45137;DHT22;30894;51.740;19.498;2023-08-06T12:10:31;20.70;99.90
45137;DHT22;30894;51.740;19.498;2023-08-06T12:12:58;20.70;99.90
45137;DHT22;30894;51.740;19.498;2023-08-06T12:15:24;20.50;99.90
45137;DHT22;30894;51.740;19.498;2023-08-06T12:17:51;20.40;99.90
45137;DHT22;30894;51.740;19.498;2023-08-06T12:20:17;20.10;99.90
45137;DHT22;30894;51.740;19.498;2023-08-06T12:22:43;20.00;99.90
45137;DHT22;30894;51.740;19.498;2023-08-06T12:25:12;19.80;99.90
45137;DHT22;30894;51.740;19.498;2023-08-06T12:27:43;19.60;99.90
45137;DHT22;30894;51.740;19.498;2023-08-06T12:30:10;19.40;99.90
45137;DHT22;30894;51.740;19.498;2023-08-06T12:32:38;19.30;99.90
45137;DHT22;30894;51.740;19.498;2023-08-06T12:35:05;19.20;99.90
45137;DHT22;30894;51.740;19.498;2023-08-06T12:37:33;19.00;99.90
45137;DHT22;30894;51.740;19.498;2023-08-06T12:39:59;18.90;99.90
45137;DHT22;30894;51.740;19.498;2023-08-06T12:42:26;18.90;99.90
45137;DHT22;30894;51.740;19.498;2023-08-06T12:44:52;18.80;99.90
45137;DHT22;30894;51.740;19.498;2023-08-06T12:47:18;18.80;99.90
45137;DHT22;30894;51.740;19.498;2023-08-06T12:49:45;18.80;99.90
45137;DHT22;30894;51.740;19.498;2023-08-06T12:52:12;18.70;99.90
45137;DHT22;30894;51.740;19.498;2023-08-06T12:54:40;18.60;99.90
45137;DHT22;30894;51.740;19.498;2023-08-06T12:57:07;18.60;99.90
45137;DHT22;30894;51.740;19.498;2023-08-06T12:59:33;18.70;99.90
45137;DHT22;30894;51.740;19.498;2023-08-06T13:02:02;18.90;99.90
45137;DHT22;30894;51.740;19.498;2023-08-06T13:04:28;18.80;99.90
45137;DHT22;30894;51.740;19.498;2023-08-06T13:06:54;18.80;99.90
45137;DHT22;30894;51.740;19.498;2023-08-06T13:09:20;18.80;99.90
45137;DHT22;30894;51.740;19.498;2023-08-06T13:11:47;18.60;99.90
45137;DHT22;30894;51.740;19.498;2023-08-06T13:14:15;18.50;99.90
45137;DHT22;30894;51.740;19.498;2023-08-06T13:16:42;18.30;99.90
45137;DHT22;30894;51.740;19.498;2023-08-06T13:19:09;18.10;99.90
45137;DHT22;30894;51.740;19.498;2023-08-06T13:24:24;17.70;99.90
45137;DHT22;30894;51.740;19.498;2023-08-06T13:26:50;17.50;99.90
45137;DHT22;30894;51.740;19.498;2023-08-06T13:29:16;17.40;99.90
45137;DHT22;30894;51.740;19.498;2023-08-06T13:31:43;17.30;99.90
45137;DHT22;30894;51.740;19.498;2023-08-06T13:34:09;17.10;99.90
45137;DHT22;30894;51.740;19.498;2023-08-06T13:36:36;17.10;99.90
45137;DHT22;30894;51.740;19.498;2023-08-06T13:39:02;17.00;99.90
45137;DHT22;30894;51.740;19.498;2023-08-06T13:41:30;16.90;99.90
45137;DHT22;30894;51.740;19.498;2023-08-06T13:43:56;16.80;99.90
45137;DHT22;30894;51.740;19.498;2023-08-06T13:46:22;16.70;99.90
45137;DHT22;30894;51.740;19.498;2023-08-06T13:48:49;16.60;99.90
45137;DHT22;30894;51.740;19.498;2023-08-06T13:51:16;16.60;99.90
45137;DHT22;30894;51.740;19.498;2023-08-06T13:53:42;16.60;99.90
45137;DHT22;30894;51.740;19.498;2023-08-06T13:56:10;16.60;99.90
45137;DHT22;30894;51.740;19.498;2023-08-06T13:58:43;16.50;99.90
45137;DHT22;30894;51.740;19.498;2023-08-06T14:01:10;16.60;99.90
45137;DHT22;30894;51.740;19.498;2023-08-06T14:03:36;16.60;99.90
45137;DHT22;30894;51.740;19.498;2023-08-06T14:06:03;16.60;99.90
45137;DHT22;30894;51.740;19.498;2023-08-06T14:08:29;16.60;99.90
45137;DHT22;30894;51.740;19.498;2023-08-06T14:10:58;16.60;99.90
45137;DHT22;30894;51.740;19.498;2023-08-06T14:13:24;16.70;99.90
45137;DHT22;30894;51.740;19.498;2023-08-06T14:15:50;16.70;99.90
45137;DHT22;30894;51.740;19.498;2023-08-06T14:18:16;16.70;99.90
45137;DHT22;30894;51.740;19.498;2023-08-06T14:20:43;16.60;99.90
45137;DHT22;30894;51.740;19.498;2023-08-06T14:23:09;16.70;99.90
45137;DHT22;30894;51.740;19.498;2023-08-06T14:25:37;16.80;99.90
45137;DHT22;30894;51.740;19.498;2023-08-06T14:28:03;16.90;99.90
45137;DHT22;30894;51.740;19.498;2023-08-06T14:30:32;16.80;99.90
45137;DHT22;30894;51.740;19.498;2023-08-06T14:32:59;16.80;99.90
45137;DHT22;30894;51.740;19.498;2023-08-06T14:35:29;16.60;99.90
45137;DHT22;30894;51.740;19.498;2023-08-06T14:37:55;16.50;99.90
45137;DHT22;30894;51.740;19.498;2023-08-06T14:40:22;16.50;99.90
45137;DHT22;30894;51.740;19.498;2023-08-06T14:42:48;16.50;99.90
45137;DHT22;30894;51.740;19.498;2023-08-06T14:45:16;16.60;99.90
45137;DHT22;30894;51.740;19.498;2023-08-06T14:47:42;16.60;99.90
45137;DHT22;30894;51.740;19.498;2023-08-06T14:50:08;16.60;99.90
45137;DHT22;30894;51.740;19.498;2023-08-06T14:52:34;16.70;99.90
45137;DHT22;30894;51.740;19.498;2023-08-06T14:55:01;16.80;99.90
45137;DHT22;30894;51.740;19.498;2023-08-06T14:57:29;16.90;99.90
45137;DHT22;30894;51.740;19.498;2023-08-06T14:59:56;16.80;99.90
45137;DHT22;30894;51.740;19.498;2023-08-06T15:02:22;16.60;99.90
45137;DHT22;30894;51.740;19.498;2023-08-06T15:04:49;16.60;99.90
45137;DHT22;30894;51.740;19.498;2023-08-06T15:07:15;16.50;99.90
45137;DHT22;30894;51.740;19.498;2023-08-06T15:09:42;16.40;99.90
45137;DHT22;30894;51.740;19.498;2023-08-06T15:12:08;16.30;99.90
45137;DHT22;30894;51.740;19.498;2023-08-06T15:14:34;16.30;99.90
45137;DHT22;30894;51.740;19.498;2023-08-06T15:17:00;16.30;99.90
45137;DHT22;30894;51.740;19.498;2023-08-06T15:19:26;16.20;99.90
45137;DHT22;30894;51.740;19.498;2023-08-06T15:21:52;16.20;99.90
45137;DHT22;30894;51.740;19.498;2023-08-06T15:24:18;16.10;99.90
45137;DHT22;30894;51.740;19.498;2023-08-06T15:26:44;16.10;99.90
45137;DHT22;30894;51.740;19.498;2023-08-06T15:29:11;16.00;99.90